createdAt,value
2018-06-11T00:00:13.745Z,14.70
2018-06-11T00:02:43.031Z,15.73
2018-06-11T00:05:12.351Z,15.30
2018-06-11T00:07:41.694Z,14.43
2018-06-11T00:10:10.998Z,14.30
2018-06-11T00:12:40.346Z,14.50
2018-06-11T00:15:09.735Z,15.23
2018-06-11T00:17:39.103Z,16.40
2018-06-11T00:20:08.471Z,15.13
2018-06-11T00:22:37.866Z,14.73
2018-06-11T00:25:07.307Z,15.07
2018-06-11T00:27:36.621Z,14.23
2018-06-11T00:30:05.930Z,15.10
2018-06-11T00:32:35.265Z,13.30
2018-06-11T00:35:04.566Z,13.50
2018-06-11T00:37:33.912Z,13.20
2018-06-11T00:40:03.267Z,13.27
2018-06-11T00:42:32.566Z,13.53
2018-06-11T00:45:01.882Z,14.83
2018-06-11T00:47:31.188Z,14.33
2018-06-11T00:50:00.567Z,13.50
2018-06-11T00:52:29.912Z,14.50
2018-06-11T00:54:59.225Z,12.30
2018-06-11T00:57:28.622Z,13.10
2018-06-11T00:59:57.931Z,14.27
2018-06-11T01:02:27.297Z,13.40
2018-06-11T01:04:56.666Z,13.27
2018-06-11T01:07:26.054Z,14.20
2018-06-11T01:09:55.417Z,13.90
2018-06-11T01:12:24.759Z,14.00
2018-06-11T01:14:54.103Z,13.80
2018-06-11T01:17:23.507Z,15.30
2018-06-11T01:19:53.367Z,14.33
2018-06-11T01:22:22.731Z,14.80
2018-06-11T01:24:51.765Z,14.90
2018-06-11T01:27:20.976Z,13.93
2018-06-11T01:29:50.322Z,12.80
2018-06-11T01:32:19.630Z,13.30
2018-06-11T01:34:48.961Z,13.50
2018-06-11T01:37:18.290Z,14.63
2018-06-11T01:39:47.603Z,13.90
2018-06-11T01:42:16.937Z,13.63
2018-06-11T01:44:46.257Z,13.00
2018-06-11T01:47:15.582Z,14.33
2018-06-11T01:49:44.887Z,14.20
2018-06-11T01:52:14.238Z,14.23
2018-06-11T01:54:43.569Z,14.67
2018-06-11T01:57:12.910Z,13.60
2018-06-11T01:59:42.233Z,14.70
2018-06-11T02:02:11.569Z,13.33
2018-06-11T02:04:40.858Z,14.50
2018-06-11T02:07:10.179Z,13.43
2018-06-11T02:09:39.481Z,14.90
2018-06-11T02:12:08.802Z,13.00
2018-06-11T02:14:38.119Z,13.20
2018-06-11T02:17:07.510Z,13.80
2018-06-11T02:19:36.859Z,13.20
2018-06-11T02:22:06.217Z,13.67
2018-06-11T02:24:35.483Z,13.77
2018-06-11T02:27:04.848Z,13.50
2018-06-11T02:29:34.124Z,12.10
2018-06-11T02:32:03.423Z,13.10
2018-06-11T02:34:32.782Z,12.43
2018-06-11T02:37:02.067Z,12.73
2018-06-11T02:39:31.412Z,13.30
2018-06-11T02:42:00.724Z,13.03
2018-06-11T02:44:30.048Z,12.00
2018-06-11T02:46:59.348Z,13.20
2018-06-11T02:49:28.691Z,12.90
2018-06-11T02:51:57.990Z,13.90
2018-06-11T02:54:27.341Z,12.87
2018-06-11T02:56:56.702Z,13.10
2018-06-11T02:59:26.054Z,11.03
2018-06-11T03:01:55.448Z,14.10
2018-06-11T03:04:24.817Z,11.60
2018-06-11T03:06:54.251Z,14.17
2018-06-11T03:09:23.694Z,13.03
2018-06-11T03:11:53.199Z,13.50
2018-06-11T03:14:23.641Z,13.83
2018-06-11T03:16:54.131Z,13.73
2018-06-11T03:19:23.531Z,14.17
2018-06-11T03:21:52.971Z,13.20
2018-06-11T03:24:22.329Z,14.40
2018-06-11T03:26:51.730Z,14.13
2018-06-11T03:29:21.137Z,13.13
2018-06-11T03:31:50.577Z,13.30
2018-06-11T03:34:19.935Z,13.50
2018-06-11T03:36:49.371Z,13.30
2018-06-11T03:39:18.731Z,12.10
2018-06-11T03:41:48.155Z,13.70
2018-06-11T03:44:17.527Z,13.37
2018-06-11T03:46:46.912Z,12.70
2018-06-11T03:49:16.402Z,13.80
2018-06-11T03:51:45.767Z,13.20
2018-06-11T03:54:15.152Z,12.80
2018-06-11T03:56:44.611Z,13.50
2018-06-11T03:59:14.821Z,12.87
2018-06-11T04:01:44.250Z,13.40
2018-06-11T04:04:13.718Z,13.93
2018-06-11T04:06:43.138Z,13.70
2018-06-11T04:09:12.543Z,13.63
2018-06-11T04:11:41.919Z,12.90
2018-06-11T04:14:11.252Z,14.10
2018-06-11T04:16:40.753Z,13.50
2018-06-11T04:19:10.174Z,14.90
2018-06-11T04:21:39.623Z,14.27
2018-06-11T04:24:09.090Z,14.37
2018-06-11T04:26:38.425Z,15.70
2018-06-11T04:29:07.823Z,14.10
2018-06-11T04:31:37.200Z,13.73
2018-06-11T04:34:06.724Z,16.77
2018-06-11T04:36:36.157Z,15.17
2018-06-11T04:39:07.441Z,15.40
2018-06-11T04:41:36.873Z,14.57
2018-06-11T04:44:06.308Z,15.03
2018-06-11T04:46:35.653Z,15.30
2018-06-11T04:49:05.061Z,15.77
2018-06-11T04:51:34.411Z,15.50
2018-06-11T04:54:03.808Z,15.93
2018-06-11T04:56:34.215Z,14.13
2018-06-11T04:59:03.584Z,15.13
2018-06-11T05:01:33.000Z,13.73
2018-06-11T05:04:02.434Z,13.57
2018-06-11T05:06:31.882Z,14.97
2018-06-11T05:09:01.349Z,14.13
2018-06-11T05:11:30.817Z,14.00
2018-06-11T05:14:00.356Z,13.00
2018-06-11T05:16:29.785Z,14.67
2018-06-11T05:18:59.341Z,13.20
2018-06-11T05:21:28.835Z,13.00
2018-06-11T05:23:58.272Z,13.17
2018-06-11T05:26:27.688Z,13.60
2018-06-11T05:28:57.131Z,12.57
2018-06-11T05:31:26.606Z,12.93
2018-06-11T05:33:56.083Z,12.90
2018-06-11T05:36:25.482Z,12.20
2018-06-11T05:38:54.916Z,10.73
2018-06-11T05:41:24.399Z,12.50
2018-06-11T05:43:53.854Z,12.53
2018-06-11T05:46:23.278Z,11.10
2018-06-11T05:48:52.699Z,11.70
2018-06-11T05:51:22.185Z,10.40
2018-06-11T05:53:51.563Z,11.50
2018-06-11T05:56:20.972Z,10.13
2018-06-11T05:58:50.386Z,10.17
2018-06-11T06:01:19.829Z,11.63
2018-06-11T06:03:49.271Z,11.60
2018-06-11T06:06:18.334Z,10.80
2018-06-11T06:08:47.646Z,11.63
2018-06-11T06:11:19.059Z,11.50
2018-06-11T06:13:48.453Z,12.73
2018-06-11T06:16:17.918Z,12.37
2018-06-11T06:18:47.333Z,12.53
2018-06-11T06:21:16.728Z,12.10
2018-06-11T06:23:46.144Z,13.00
2018-06-11T06:26:15.493Z,13.50
2018-06-11T06:28:44.872Z,13.67
2018-06-11T06:31:14.194Z,13.00
2018-06-11T06:33:43.662Z,12.33
2018-06-11T06:36:13.052Z,11.70
2018-06-11T06:38:42.435Z,14.33
2018-06-11T06:41:11.779Z,13.03
2018-06-11T06:43:41.251Z,13.63
2018-06-11T06:46:10.675Z,13.33
2018-06-11T06:48:40.052Z,11.90
2018-06-11T06:51:09.398Z,14.70
2018-06-11T06:53:38.769Z,13.27
2018-06-11T06:56:08.196Z,12.27
2018-06-11T06:58:37.735Z,13.40
2018-06-11T07:01:07.156Z,13.07
2018-06-11T07:03:36.600Z,13.80
2018-06-11T07:06:05.955Z,12.73
2018-06-11T07:08:35.345Z,12.40
2018-06-11T07:11:04.815Z,13.97
2018-06-11T07:13:34.221Z,13.97
2018-06-11T07:16:03.634Z,12.67
2018-06-11T07:18:33.069Z,13.30
2018-06-11T07:21:02.488Z,12.20
2018-06-11T07:23:31.885Z,12.70
2018-06-11T07:26:01.292Z,12.27
2018-06-11T07:28:30.717Z,11.53
2018-06-11T07:31:00.144Z,11.67
2018-06-11T07:33:29.607Z,11.60
2018-06-11T07:35:59.071Z,11.53
2018-06-11T07:38:28.590Z,11.77
2018-06-11T07:40:58.069Z,12.57
2018-06-11T07:43:27.480Z,11.60
2018-06-11T07:45:56.899Z,11.80
2018-06-11T07:48:26.352Z,10.20
2018-06-11T07:50:55.847Z,10.70
2018-06-11T07:53:25.212Z,10.70
2018-06-11T07:55:58.904Z,11.70
2018-06-11T07:58:28.352Z,11.20
2018-06-11T08:00:57.809Z,11.47
2018-06-11T08:03:27.198Z,11.60
2018-06-11T08:05:56.540Z,12.00
2018-06-11T08:08:26.828Z,11.30
2018-06-11T08:10:56.207Z,11.80
2018-06-11T08:13:25.649Z,11.90
2018-06-11T08:15:55.011Z,10.87
2018-06-11T08:18:24.411Z,12.93
2018-06-11T08:20:53.865Z,10.90
2018-06-11T08:23:23.312Z,11.37
2018-06-11T08:25:52.643Z,10.27
2018-06-11T08:28:22.029Z,11.10
2018-06-11T08:30:51.379Z,10.30
2018-06-11T08:33:20.827Z,11.50
2018-06-11T08:35:50.178Z,11.30
2018-06-11T08:38:19.586Z,10.70
2018-06-11T08:40:48.951Z,10.67
2018-06-11T08:43:18.309Z,11.40
2018-06-11T08:45:47.642Z,11.57
2018-06-11T08:48:16.968Z,10.97
2018-06-11T08:50:46.288Z,9.77
2018-06-11T08:53:15.642Z,9.77
2018-06-11T08:55:44.977Z,9.77
2018-06-11T08:58:14.458Z,10.10
2018-06-11T09:00:43.849Z,11.00
2018-06-11T09:03:13.283Z,10.27
2018-06-11T09:05:42.639Z,8.60
2018-06-11T09:08:12.047Z,9.40
2018-06-11T09:10:41.392Z,10.20
2018-06-11T09:13:10.795Z,9.73
2018-06-11T09:15:40.199Z,9.47
2018-06-11T09:18:09.709Z,9.33
2018-06-11T09:20:39.059Z,10.53
2018-06-11T09:23:08.445Z,9.23
2018-06-11T09:25:37.836Z,8.10
2018-06-11T09:28:07.184Z,8.40
2018-06-11T09:30:36.605Z,8.10
2018-06-11T09:33:06.044Z,8.10
2018-06-11T09:35:35.417Z,8.10
2018-06-11T09:38:04.801Z,7.60
2018-06-11T09:40:33.818Z,8.40
2018-06-11T09:43:03.448Z,7.90
2018-06-11T09:45:32.836Z,7.87
2018-06-11T09:48:02.245Z,7.77
2018-06-11T09:50:31.720Z,8.23
2018-06-11T09:53:01.084Z,7.60
2018-06-11T09:55:30.454Z,7.90
2018-06-11T09:57:59.851Z,8.03
2018-06-11T10:00:36.117Z,9.17
2018-06-11T10:03:05.873Z,8.33
2018-06-11T10:05:35.245Z,8.33
2018-06-11T10:08:04.736Z,7.43
2018-06-11T10:10:34.124Z,8.20
2018-06-11T10:13:03.519Z,8.10
2018-06-11T10:15:32.905Z,7.10
2018-06-11T10:18:02.307Z,6.70
2018-06-11T10:20:31.692Z,6.80
2018-06-11T10:23:01.107Z,7.13
2018-06-11T10:25:30.440Z,6.93
2018-06-11T10:27:59.848Z,7.00
2018-06-11T10:30:29.193Z,6.63
2018-06-11T10:32:58.550Z,6.30
2018-06-11T10:35:27.917Z,6.63
2018-06-11T10:37:57.282Z,6.90
2018-06-11T10:40:26.653Z,7.30
2018-06-11T10:42:56.077Z,7.67
2018-06-11T10:45:25.431Z,6.87
2018-06-11T10:47:54.812Z,7.83
2018-06-11T10:50:24.238Z,6.93
2018-06-11T10:52:53.639Z,7.27
2018-06-11T10:55:23.008Z,6.77
2018-06-11T10:57:52.491Z,7.17
2018-06-11T11:00:21.895Z,6.30
2018-06-11T11:02:51.248Z,6.63
2018-06-11T11:05:20.691Z,7.23
2018-06-11T11:07:50.033Z,7.50
2018-06-11T11:10:19.465Z,7.17
2018-06-11T11:12:48.815Z,7.57
2018-06-11T11:15:18.162Z,8.07
2018-06-11T11:17:47.528Z,8.90
2018-06-11T11:20:16.895Z,8.60
2018-06-11T11:22:46.273Z,8.10
2018-06-11T11:25:15.695Z,9.07
2018-06-11T11:27:45.190Z,9.43
2018-06-11T11:30:14.558Z,8.67
2018-06-11T11:32:43.979Z,9.60
2018-06-11T11:35:13.312Z,9.80
2018-06-11T11:37:42.692Z,9.70
2018-06-11T11:40:12.016Z,9.60
2018-06-11T11:42:41.360Z,9.63
2018-06-11T11:45:10.738Z,10.00
2018-06-11T11:47:40.093Z,11.07
2018-06-11T11:50:09.450Z,12.20
2018-06-11T11:52:38.836Z,11.20
2018-06-11T11:55:08.286Z,12.33
2018-06-11T11:57:37.639Z,10.80
2018-06-11T12:00:06.977Z,12.70
2018-06-11T12:02:37.415Z,14.43
2018-06-11T12:05:06.748Z,12.10
2018-06-11T12:07:36.084Z,12.30
2018-06-11T12:10:05.410Z,12.37
2018-06-11T12:12:34.789Z,11.67
2018-06-11T12:15:04.171Z,12.90
2018-06-11T12:17:33.524Z,13.03
2018-06-11T12:20:02.849Z,12.87
2018-06-11T12:22:32.214Z,12.00
2018-06-11T12:25:01.606Z,11.97
2018-06-11T12:27:30.975Z,12.30
2018-06-11T12:30:00.294Z,12.87
2018-06-11T12:32:29.636Z,12.73
2018-06-11T12:34:58.959Z,12.00
2018-06-11T12:37:28.331Z,11.13
2018-06-11T12:39:58.754Z,13.00
2018-06-11T12:42:28.100Z,12.83
2018-06-11T12:44:57.434Z,12.17
2018-06-11T12:47:26.860Z,12.73
2018-06-11T12:49:56.225Z,12.57
2018-06-11T12:52:25.574Z,12.10
2018-06-11T12:54:56.000Z,12.77
2018-06-11T12:57:25.371Z,12.53
2018-06-11T12:59:54.662Z,12.37
2018-06-11T13:02:24.016Z,13.43
2018-06-11T13:04:53.379Z,12.87
2018-06-11T13:07:22.751Z,12.40
2018-06-11T13:09:52.413Z,12.20
2018-06-11T13:12:21.862Z,13.50
2018-06-11T13:14:51.213Z,13.93
2018-06-11T13:17:20.541Z,13.40
2018-06-11T13:19:52.903Z,13.50
2018-06-11T13:22:22.212Z,12.37
2018-06-11T13:24:51.539Z,12.37
2018-06-11T13:27:20.845Z,12.20
2018-06-11T13:29:50.224Z,14.40
2018-06-11T13:32:19.747Z,13.37
2018-06-11T13:34:49.088Z,14.40
2018-06-11T13:37:18.419Z,13.40
2018-06-11T13:39:47.787Z,14.23
2018-06-11T13:42:17.119Z,14.57
2018-06-11T13:44:46.483Z,14.20
2018-06-11T13:47:15.807Z,15.50
2018-06-11T13:49:45.149Z,12.70
2018-06-11T13:52:14.184Z,11.67
2018-06-11T13:54:43.516Z,11.13
2018-06-11T13:57:12.873Z,10.87
2018-06-11T13:59:42.396Z,11.47
2018-06-11T14:02:11.799Z,11.10
2018-06-11T14:04:41.233Z,10.30
2018-06-11T14:07:10.555Z,9.80
2018-06-11T14:09:39.985Z,10.50
2018-06-11T14:12:09.347Z,10.20
2018-06-11T14:14:38.830Z,9.73
2018-06-11T14:17:08.186Z,8.70
2018-06-11T14:19:37.639Z,7.37
2018-06-11T14:22:07.019Z,4.90
2018-06-11T14:24:36.365Z,5.07
2018-06-11T14:27:05.725Z,4.93
2018-06-11T14:29:35.076Z,3.50
2018-06-11T14:32:04.490Z,3.80
2018-06-11T14:34:33.826Z,3.43
2018-06-11T14:37:03.179Z,2.90
2018-06-11T14:39:32.652Z,2.80
2018-06-11T14:42:02.155Z,2.83
2018-06-11T14:44:31.584Z,4.23
2018-06-11T14:47:01.000Z,3.97
2018-06-11T14:49:30.384Z,3.80
2018-06-11T14:51:59.848Z,4.10
2018-06-11T14:54:29.203Z,4.17
2018-06-11T14:56:58.656Z,5.43
2018-06-11T14:59:29.019Z,7.67
2018-06-11T15:01:58.398Z,8.63
2018-06-11T15:04:27.746Z,8.33
2018-06-11T15:06:57.134Z,9.40
2018-06-11T15:09:26.587Z,9.70
2018-06-11T15:11:55.915Z,10.13
2018-06-11T15:14:25.278Z,12.50
2018-06-11T15:16:54.608Z,12.33
2018-06-11T15:19:24.015Z,13.90
2018-06-11T15:21:53.454Z,13.43
2018-06-11T15:24:22.832Z,15.10
2018-06-11T15:26:52.185Z,16.13
2018-06-11T15:29:21.609Z,14.60
2018-06-11T15:31:50.927Z,14.43
2018-06-11T15:34:20.300Z,13.37
2018-06-11T15:36:49.661Z,14.87
2018-06-11T15:39:19.070Z,16.47
2018-06-11T15:41:48.415Z,14.80
2018-06-11T15:44:17.895Z,15.20
2018-06-11T15:46:47.253Z,15.57
2018-06-11T15:49:16.619Z,15.37
2018-06-11T15:51:45.979Z,14.20
2018-06-11T15:54:15.435Z,15.17
2018-06-11T15:56:44.803Z,16.90
2018-06-11T15:59:14.239Z,15.13
2018-06-11T16:01:43.660Z,16.47
2018-06-11T16:04:13.026Z,17.30
2018-06-11T16:06:42.363Z,17.03
2018-06-11T16:09:11.746Z,17.47
2018-06-11T16:11:41.093Z,18.00
2018-06-11T16:14:10.494Z,17.70
2018-06-11T16:16:39.916Z,17.77
2018-06-11T16:19:09.291Z,19.00
2018-06-11T16:21:38.822Z,19.07
2018-06-11T16:24:08.198Z,18.83
2018-06-11T16:26:37.577Z,21.17
2018-06-11T16:29:06.925Z,22.30
2018-06-11T16:31:36.376Z,21.27
2018-06-11T16:34:05.956Z,21.40
2018-06-11T16:36:35.376Z,23.93
2018-06-11T16:39:07.731Z,21.17
2018-06-11T16:41:37.126Z,21.97
2018-06-11T16:44:06.278Z,25.93
2018-06-11T16:46:35.501Z,23.00
2018-06-11T16:49:04.877Z,25.60
2018-06-11T16:51:34.259Z,23.63
2018-06-11T16:54:03.757Z,23.80
2018-06-11T16:56:33.220Z,23.37
2018-06-11T16:59:02.603Z,22.70
2018-06-11T17:01:32.029Z,22.37
2018-06-11T17:04:01.399Z,22.47
2018-06-11T17:06:30.829Z,23.97
2018-06-11T17:09:00.401Z,24.30
2018-06-11T17:11:29.870Z,25.23
2018-06-11T17:13:59.968Z,25.43
2018-06-11T17:16:29.261Z,25.53
2018-06-11T17:18:58.623Z,27.83
2018-06-11T17:21:28.212Z,29.47
2018-06-11T17:23:57.730Z,27.73
2018-06-11T17:26:27.198Z,27.47
2018-06-11T17:28:56.356Z,27.23
2018-06-11T17:31:25.926Z,28.17
2018-06-11T17:33:55.453Z,26.40
2018-06-11T17:36:24.939Z,28.73
2018-06-11T17:38:54.436Z,28.33
2018-06-11T17:41:23.903Z,28.47
2018-06-11T17:43:53.362Z,30.57
2018-06-11T17:46:22.908Z,27.40
2018-06-11T17:48:52.437Z,30.60
2018-06-11T17:51:21.848Z,28.37
2018-06-11T17:53:51.264Z,29.20
2018-06-11T17:56:20.600Z,33.27
2018-06-11T17:58:50.305Z,32.50
2018-06-11T18:01:21.785Z,28.70
2018-06-11T18:03:51.386Z,28.63
2018-06-11T18:06:21.215Z,29.57
2018-06-11T18:08:51.175Z,32.80
2018-06-11T18:11:20.690Z,27.80
2018-06-11T18:13:50.520Z,29.33
2018-06-11T18:16:20.238Z,29.73
2018-06-11T18:18:49.783Z,30.10
2018-06-11T18:21:18.801Z,27.00
2018-06-11T18:23:48.638Z,31.50
2018-06-11T18:26:18.023Z,29.20
2018-06-11T18:28:47.381Z,30.83
2018-06-11T18:31:16.738Z,28.50
2018-06-11T18:33:46.281Z,28.60
2018-06-11T18:36:15.751Z,28.33
2018-06-11T18:38:45.135Z,29.57
2018-06-11T18:41:14.634Z,28.67
2018-06-11T18:43:44.072Z,30.13
2018-06-11T18:46:13.625Z,31.53
2018-06-11T18:48:43.220Z,31.80
2018-06-11T18:51:12.734Z,30.00
2018-06-11T18:53:42.276Z,30.60
2018-06-11T18:56:11.715Z,28.43
2018-06-11T18:58:41.082Z,31.40
2018-06-11T19:01:10.607Z,33.47
2018-06-11T19:03:40.017Z,34.13
2018-06-11T19:06:09.495Z,35.37
2018-06-11T19:08:38.931Z,33.73
2018-06-11T19:11:08.369Z,32.83
2018-06-11T19:13:37.784Z,37.10
2018-06-11T19:16:07.177Z,34.53
2018-06-11T19:18:36.562Z,37.17
2018-06-11T19:21:06.394Z,35.37
2018-06-11T19:23:35.791Z,35.67
2018-06-11T19:26:05.188Z,37.60
2018-06-11T19:28:34.567Z,35.57
2018-06-11T19:31:03.986Z,39.20
2018-06-11T19:33:33.328Z,38.37
2018-06-11T19:36:02.716Z,38.90
2018-06-11T19:38:32.085Z,38.03
2018-06-11T19:41:01.532Z,36.93
2018-06-11T19:43:30.892Z,38.87
2018-06-11T19:46:00.377Z,38.20
2018-06-11T19:48:29.906Z,37.10
2018-06-11T19:50:59.365Z,38.10
2018-06-11T19:53:28.691Z,37.87
2018-06-11T19:55:58.184Z,38.60
2018-06-11T19:58:27.531Z,37.70
2018-06-11T20:00:56.936Z,39.90
2018-06-11T20:03:26.055Z,39.70
2018-06-11T20:05:55.252Z,38.30
2018-06-11T20:08:24.669Z,41.07
2018-06-11T20:10:54.068Z,41.13
2018-06-11T20:13:23.520Z,39.27
2018-06-11T20:15:52.923Z,39.97
2018-06-11T20:18:22.345Z,40.73
2018-06-11T20:20:51.779Z,41.17
2018-06-11T20:23:20.850Z,41.27
2018-06-11T20:25:50.124Z,40.70
2018-06-11T20:28:19.543Z,43.47
2018-06-11T20:30:48.891Z,40.93
2018-06-11T20:33:18.263Z,41.63
2018-06-11T20:35:47.639Z,41.40
2018-06-11T20:38:17.000Z,39.67
2018-06-11T20:40:46.396Z,41.87
2018-06-11T20:43:15.740Z,40.70
2018-06-11T20:45:45.109Z,39.33
2018-06-11T20:48:14.559Z,41.43
2018-06-11T20:50:43.946Z,38.40
2018-06-11T20:53:13.279Z,43.00
2018-06-11T20:55:43.716Z,43.90
2018-06-11T20:58:12.698Z,44.80
2018-06-11T21:00:41.935Z,41.40
2018-06-11T21:03:11.279Z,42.60
2018-06-11T21:05:40.647Z,42.93
2018-06-11T21:08:09.980Z,41.50
2018-06-11T21:10:39.312Z,38.80
2018-06-11T21:13:08.650Z,39.37
2018-06-11T21:15:38.060Z,39.00
2018-06-11T21:18:07.500Z,40.00
2018-06-11T21:20:36.879Z,39.77
2018-06-11T21:23:06.239Z,42.30
2018-06-11T21:25:35.582Z,42.60
2018-06-11T21:28:04.939Z,39.03
2018-06-11T21:30:34.284Z,40.73
2018-06-11T21:33:03.608Z,39.17
2018-06-11T21:35:32.995Z,41.20
2018-06-11T21:38:02.320Z,43.73
2018-06-11T21:40:31.719Z,42.67
2018-06-11T21:43:01.058Z,42.73
2018-06-11T21:45:30.415Z,42.00
2018-06-11T21:47:59.774Z,43.77
2018-06-11T21:50:29.106Z,44.43
2018-06-11T21:52:59.557Z,43.67
2018-06-11T21:55:28.904Z,42.90
2018-06-11T21:57:58.294Z,44.80
2018-06-11T22:00:27.820Z,43.70
2018-06-11T22:02:57.273Z,42.90
2018-06-11T22:05:26.665Z,46.47
2018-06-11T22:07:56.130Z,45.80
2018-06-11T22:10:25.671Z,43.77
2018-06-11T22:12:55.094Z,43.00
2018-06-11T22:15:24.483Z,42.23
2018-06-11T22:17:53.901Z,41.53
2018-06-11T22:20:23.342Z,45.67
2018-06-11T22:22:52.752Z,44.80
2018-06-11T22:25:22.188Z,46.83
2018-06-11T22:27:51.641Z,47.13
2018-06-11T22:30:21.064Z,46.10
2018-06-11T22:32:50.578Z,47.00
2018-06-11T22:35:20.011Z,47.30
2018-06-11T22:37:49.362Z,47.93
2018-06-11T22:40:18.783Z,47.47
2018-06-11T22:42:48.229Z,48.00
2018-06-11T22:45:17.659Z,50.23
2018-06-11T22:47:47.044Z,45.67
2018-06-11T22:50:16.446Z,48.77
2018-06-11T22:52:45.835Z,47.93
2018-06-11T22:55:15.322Z,49.57
2018-06-11T22:57:44.740Z,47.70
2018-06-11T23:00:18.270Z,48.73
2018-06-11T23:02:47.408Z,49.00
2018-06-11T23:05:16.831Z,50.27
2018-06-11T23:07:46.265Z,47.47
2018-06-11T23:10:15.647Z,49.03
2018-06-11T23:12:45.062Z,50.00
2018-06-11T23:15:14.542Z,49.30
2018-06-11T23:17:44.068Z,48.63
2018-06-11T23:20:13.444Z,50.87
2018-06-11T23:22:42.879Z,47.60
2018-06-11T23:25:12.333Z,46.63
2018-06-11T23:27:41.777Z,47.37
2018-06-11T23:30:11.201Z,47.67
2018-06-11T23:32:40.655Z,48.83
2018-06-11T23:35:10.146Z,49.90
2018-06-11T23:37:39.588Z,48.93
2018-06-11T23:40:09.028Z,46.33
2018-06-11T23:42:38.419Z,46.63
2018-06-11T23:45:07.874Z,49.87
2018-06-11T23:47:37.392Z,49.90
2018-06-11T23:50:06.888Z,48.10
2018-06-11T23:52:36.379Z,46.80
2018-06-11T23:55:05.834Z,45.37
2018-06-11T23:57:35.274Z,49.47
